METAR Data
IDs: Format: Raw Decoded Include TAF

Data at: 2158 UTC 28 Jan 2020

Region: TOP
KATL 282052Z 36012G18KT 10SM FEW065 14/M02 A2998 RMK AO2 SLP156 T01441017 55013

KBOS 282154Z 33011G17KT 10SM FEW028 BKN045 OVC130 04/M07 A2977 RMK AO2 SLP080 T00441067

KBWI 282154Z 31011G20KT 10SM OVC050 07/M04 A2992 RMK AO2 SLP131 T00671039

KCLE 282151Z 29009KT 8SM -SN FEW012 OVC032 01/M02 A3005 RMK AO2 SLP183 P0000 T00111017

KCLT 282056Z 29005KT 10SM FEW045 FEW250 14/M01 A2994 RMK AO2 T01391006

KCVG 282052Z 29004KT 9SM SCT016 OVC020 01/M03 A3005 RMK AO2 SLP183 T00111028 55005

KDCA 282052Z 32009KT 280V340 10SM OVC050 08/M02 A2993 RMK AO2 SLP134 T00781022 55001

KDEN 282153Z 13010KT 10SM FEW080 FEW140 04/M06 A2999 RMK AO2 SLP158 T00441056

KDFW 282153Z 29014KT 10SM R17C/5500VP6000FT -TSRA FEW026 BKN032CB OVC060 14/12 A2973 RMK AO2 LTG DSNT N AND NW RAB12 TSB26 SLP062 OCNL LTGIC NE-SE TS NE-SE MOV NE P0020 T01440122 $

KDTW 282153Z 34006KT 10SM OVC030 01/M04 A3004 RMK AO2 SLP177 T00111044

KEWR 282151Z 32015G21KT 10SM OVC043 05/M04 A2985 RMK AO2 SLP107 T00501044

KFLL 282053Z 06010KT 10SM FEW027 SCT040 23/17 A2987 RMK AO2 SLP113 T02330172 56009

KIAD 282152Z 32018G22KT 10SM BKN048 06/M04 A2995 RMK AO2 SLP141 T00611044 $

KIAH 282153Z 11008KT 10SM FEW012 FEW032 BKN060 BKN150 16/14 A2983 RMK AO2 RAE34 SLP100 P0011 T01610144

KJFK 282051Z 31015G21KT 10SM BKN044 05/M04 A2983 RMK AO2 SLP100 T00501039 53009 $

KLAS 282056Z VRB03KT 10SM FEW150 SCT200 BKN250 17/M04 A3016 RMK AO2 SLP205 T01671039 58031

KLAX 282053Z 24006KT 10SM FEW120 FEW140 SCT180 21/07 A3012 RMK AO2 SLP197 T02060072 58022

KLGA 282051Z 32015G21KT 10SM OVC045 04/M04 A2982 RMK AO2 SLP098 T00441044 53008

KMCO 282153Z 07011KT 10SM FEW030 19/06 A2993 RMK AO2 SLP134 FU FEW030 T01940061

KMDW 282153Z 27004KT 10SM OVC020 00/M04 A3010 RMK AO2 SLP203 T00001044

KMEM 282154Z 33006KT 10SM BKN120 OVC250 10/06 A3000 RMK AO2 SLP158 T01000056

KMIA 282053Z 08008KT 10SM BKN034 BKN042 26/16 A2987 RMK AO2 SLP116 T02560161 56009

KMSP 282138Z 01004KT 9SM -SN OVC015 M07/M11 A3015 RMK AO2 P0000 T10721111

KORD 282051Z 25003KT 10SM OVC018 00/M04 A3007 RMK AO2 SLP191 60000 T00001044 55001

KPDX 282053Z 18007G15KT 10SM BKN016 BKN042 OVC070 11/07 A3005 RMK AO2 RAE36 SLP177 P0002 60006 T01060072 51023

KPHL 282154Z 32014G20KT 10SM OVC046 05/M05 A2990 RMK AO2 SLP125 T00501050 $

KPHX 282051Z 00000KT 10SM FEW250 20/M07 A3008 RMK AO2 SLP178 T02001067 58026

KPIT 282051Z 28010KT 6SM -SN BR OVC008 00/M02 A2997 RMK AO2 SNB01 SLP168 P0000 60000 T00001017 53000

KSAN 282051Z 30010KT 10SM FEW250 21/08 A3013 RMK AO2 SLP201 T02110078 58024

KSEA 282053Z 21003KT 10SM FEW009 SCT031 SCT050 10/07 A3001 RMK AO2 RAE32 SLP169 P0000 60002 T01000072 51022

KSFO 282056Z 24009KT 9SM FEW014 BKN044 BKN050 16/12 A3033 RMK AO2 RAB11E21 SLP269 P0000 60003 T01610117 58010

KSLC 282054Z 20010KT 10SM FEW055 BKN070 OVC110 07/M03 A3013 RMK AO2 SLP201 VIRGA SH DSNT NE AND SE AND SW T00721033 58026

KSTL 282051Z 32005KT 9SM OVC011 00/M03 A3009 RMK AO2 SLP201 60000 T00001028 56006

KTPA 282153Z 02006KT 10SM CLR 22/04 A2992 RMK AO2 SLP129 T02170039 $